sensor_id;sensor_type;location;lat;lon;timestamp;P1;durP1;ratioP1;P2;durP2;ratioP2
24173;SDS011;12324;48.146;11.502;2024-02-04T00:01:59;11.25;;;4.80;;
24173;SDS011;12324;48.146;11.502;2024-02-04T00:04:26;12.43;;;4.78;;
24173;SDS011;12324;48.146;11.502;2024-02-04T00:06:54;11.13;;;4.85;;
24173;SDS011;12324;48.146;11.502;2024-02-04T00:09:21;16.30;;;5.38;;
24173;SDS011;12324;48.146;11.502;2024-02-04T00:11:49;10.68;;;4.72;;
24173;SDS011;12324;48.146;11.502;2024-02-04T00:14:16;8.55;;;4.25;;
24173;SDS011;12324;48.146;11.502;2024-02-04T00:16:43;10.32;;;4.50;;
24173;SDS011;12324;48.146;11.502;2024-02-04T00:19:11;8.50;;;4.53;;
24173;SDS011;12324;48.146;11.502;2024-02-04T00:21:38;11.65;;;4.95;;
24173;SDS011;12324;48.146;11.502;2024-02-04T00:24:05;9.57;;;4.63;;
24173;SDS011;12324;48.146;11.502;2024-02-04T00:26:33;10.13;;;4.38;;
24173;SDS011;12324;48.146;11.502;2024-02-04T00:29:00;8.07;;;4.25;;
24173;SDS011;12324;48.146;11.502;2024-02-04T00:31:27;8.60;;;4.22;;
24173;SDS011;12324;48.146;11.502;2024-02-04T00:33:55;10.10;;;4.35;;
24173;SDS011;12324;48.146;11.502;2024-02-04T00:36:22;11.52;;;5.30;;
24173;SDS011;12324;48.146;11.502;2024-02-04T00:38:49;10.15;;;5.15;;
24173;SDS011;12324;48.146;11.502;2024-02-04T00:41:16;8.27;;;4.15;;
24173;SDS011;12324;48.146;11.502;2024-02-04T00:43:44;11.38;;;5.05;;
24173;SDS011;12324;48.146;11.502;2024-02-04T00:46:11;11.15;;;5.10;;
24173;SDS011;12324;48.146;11.502;2024-02-04T00:48:38;10.95;;;4.97;;
24173;SDS011;12324;48.146;11.502;2024-02-04T00:51:08;10.43;;;5.22;;
24173;SDS011;12324;48.146;11.502;2024-02-04T00:53:36;12.73;;;6.07;;
24173;SDS011;12324;48.146;11.502;2024-02-04T00:56:03;12.77;;;5.75;;
24173;SDS011;12324;48.146;11.502;2024-02-04T00:58:30;12.77;;;6.28;;
24173;SDS011;12324;48.146;11.502;2024-02-04T01:00:57;12.75;;;6.22;;
24173;SDS011;12324;48.146;11.502;2024-02-04T01:03:25;13.95;;;6.20;;
24173;SDS011;12324;48.146;11.502;2024-02-04T01:05:52;14.68;;;7.40;;
24173;SDS011;12324;48.146;11.502;2024-02-04T01:08:19;12.88;;;6.65;;
24173;SDS011;12324;48.146;11.502;2024-02-04T01:10:47;13.27;;;6.72;;
24173;SDS011;12324;48.146;11.502;2024-02-04T01:13:14;12.23;;;6.55;;
24173;SDS011;12324;48.146;11.502;2024-02-04T01:15:41;15.95;;;8.05;;
24173;SDS011;12324;48.146;11.502;2024-02-04T01:18:08;16.58;;;7.53;;
24173;SDS011;12324;48.146;11.502;2024-02-04T01:20:35;15.15;;;7.03;;
24173;SDS011;12324;48.146;11.502;2024-02-04T01:23:02;15.82;;;8.02;;
24173;SDS011;12324;48.146;11.502;2024-02-04T01:25:30;15.18;;;7.32;;
24173;SDS011;12324;48.146;11.502;2024-02-04T01:27:57;12.80;;;6.80;;
24173;SDS011;12324;48.146;11.502;2024-02-04T01:30:24;14.30;;;7.07;;
24173;SDS011;12324;48.146;11.502;2024-02-04T01:32:51;10.77;;;5.43;;
24173;SDS011;12324;48.146;11.502;2024-02-04T01:35:19;11.90;;;5.95;;
24173;SDS011;12324;48.146;11.502;2024-02-04T01:37:46;12.02;;;6.25;;
24173;SDS011;12324;48.146;11.502;2024-02-04T01:40:15;11.90;;;5.97;;
24173;SDS011;12324;48.146;11.502;2024-02-04T01:42:42;12.65;;;6.13;;
24173;SDS011;12324;48.146;11.502;2024-02-04T01:45:09;13.63;;;6.68;;
24173;SDS011;12324;48.146;11.502;2024-02-04T01:47:37;12.90;;;6.65;;
24173;SDS011;12324;48.146;11.502;2024-02-04T01:50:05;14.50;;;6.43;;
24173;SDS011;12324;48.146;11.502;2024-02-04T01:52:32;13.02;;;6.88;;
24173;SDS011;12324;48.146;11.502;2024-02-04T01:55:00;12.90;;;6.32;;
24173;SDS011;12324;48.146;11.502;2024-02-04T01:57:28;13.82;;;6.60;;
24173;SDS011;12324;48.146;11.502;2024-02-04T01:59:55;13.93;;;5.78;;
24173;SDS011;12324;48.146;11.502;2024-02-04T02:02:23;13.45;;;7.05;;
24173;SDS011;12324;48.146;11.502;2024-02-04T02:04:52;12.15;;;6.68;;
24173;SDS011;12324;48.146;11.502;2024-02-04T02:07:19;12.50;;;6.63;;
24173;SDS011;12324;48.146;11.502;2024-02-04T02:09:47;13.02;;;6.20;;
24173;SDS011;12324;48.146;11.502;2024-02-04T02:12:24;11.98;;;6.15;;
24173;SDS011;12324;48.146;11.502;2024-02-04T02:15:10;12.38;;;5.90;;
24173;SDS011;12324;48.146;11.502;2024-02-04T02:17:40;12.07;;;5.97;;
24173;SDS011;12324;48.146;11.502;2024-02-04T02:20:23;11.80;;;5.90;;
24173;SDS011;12324;48.146;11.502;2024-02-04T02:22:57;12.85;;;5.82;;
24173;SDS011;12324;48.146;11.502;2024-02-04T02:25:27;14.57;;;6.47;;
24173;SDS011;12324;48.146;11.502;2024-02-04T02:27:54;13.77;;;6.60;;
24173;SDS011;12324;48.146;11.502;2024-02-04T02:30:21;13.13;;;5.97;;
24173;SDS011;12324;48.146;11.502;2024-02-04T02:32:48;12.60;;;6.10;;
24173;SDS011;12324;48.146;11.502;2024-02-04T02:35:16;11.20;;;5.53;;
24173;SDS011;12324;48.146;11.502;2024-02-04T02:38:03;10.55;;;5.15;;
24173;SDS011;12324;48.146;11.502;2024-02-04T02:40:38;10.75;;;4.88;;
24173;SDS011;12324;48.146;11.502;2024-02-04T02:43:11;12.57;;;5.70;;
24173;SDS011;12324;48.146;11.502;2024-02-04T02:45:41;13.27;;;6.03;;
24173;SDS011;12324;48.146;11.502;2024-02-04T02:48:09;11.73;;;5.18;;
24173;SDS011;12324;48.146;11.502;2024-02-04T02:50:37;12.25;;;6.03;;
24173;SDS011;12324;48.146;11.502;2024-02-04T02:53:04;10.93;;;4.90;;
24173;SDS011;12324;48.146;11.502;2024-02-04T02:55:31;9.68;;;4.80;;
24173;SDS011;12324;48.146;11.502;2024-02-04T02:57:58;12.30;;;5.57;;
24173;SDS011;12324;48.146;11.502;2024-02-04T03:00:25;11.43;;;5.25;;
24173;SDS011;12324;48.146;11.502;2024-02-04T03:02:52;10.98;;;5.50;;
24173;SDS011;12324;48.146;11.502;2024-02-04T03:05:19;9.77;;;4.50;;
24173;SDS011;12324;48.146;11.502;2024-02-04T03:07:46;10.15;;;4.85;;
24173;SDS011;12324;48.146;11.502;2024-02-04T03:10:13;8.77;;;4.28;;
24173;SDS011;12324;48.146;11.502;2024-02-04T03:12:39;9.90;;;4.57;;
24173;SDS011;12324;48.146;11.502;2024-02-04T03:15:06;8.40;;;4.25;;
24173;SDS011;12324;48.146;11.502;2024-02-04T03:17:33;8.13;;;3.78;;
24173;SDS011;12324;48.146;11.502;2024-02-04T03:20:00;12.27;;;4.57;;
24173;SDS011;12324;48.146;11.502;2024-02-04T03:22:27;10.27;;;4.82;;
24173;SDS011;12324;48.146;11.502;2024-02-04T03:24:54;11.75;;;5.10;;
24173;SDS011;12324;48.146;11.502;2024-02-04T03:27:21;9.82;;;4.38;;
24173;SDS011;12324;48.146;11.502;2024-02-04T03:29:48;10.10;;;4.97;;
24173;SDS011;12324;48.146;11.502;2024-02-04T03:32:14;10.80;;;4.97;;
24173;SDS011;12324;48.146;11.502;2024-02-04T03:34:41;11.52;;;5.10;;
24173;SDS011;12324;48.146;11.502;2024-02-04T03:37:08;10.85;;;4.90;;
24173;SDS011;12324;48.146;11.502;2024-02-04T03:39:36;11.43;;;5.22;;
24173;SDS011;12324;48.146;11.502;2024-02-04T03:42:02;10.13;;;4.75;;
24173;SDS011;12324;48.146;11.502;2024-02-04T03:44:30;9.68;;;4.57;;
24173;SDS011;12324;48.146;11.502;2024-02-04T03:46:56;10.00;;;4.93;;
24173;SDS011;12324;48.146;11.502;2024-02-04T03:49:23;11.02;;;4.80;;
24173;SDS011;12324;48.146;11.502;2024-02-04T03:51:50;9.70;;;4.50;;
24173;SDS011;12324;48.146;11.502;2024-02-04T03:54:17;10.68;;;4.55;;
24173;SDS011;12324;48.146;11.502;2024-02-04T03:56:45;8.85;;;4.13;;
24173;SDS011;12324;48.146;11.502;2024-02-04T03:59:12;7.93;;;4.15;;
24173;SDS011;12324;48.146;11.502;2024-02-04T04:01:38;8.00;;;3.78;;
24173;SDS011;12324;48.146;11.502;2024-02-04T04:04:06;9.75;;;4.03;;
24173;SDS011;12324;48.146;11.502;2024-02-04T04:06:33;9.05;;;4.20;;
24173;SDS011;12324;48.146;11.502;2024-02-04T04:09:00;7.80;;;3.72;;
24173;SDS011;12324;48.146;11.502;2024-02-04T04:11:27;7.40;;;3.80;;
24173;SDS011;12324;48.146;11.502;2024-02-04T04:13:54;7.38;;;3.92;;
24173;SDS011;12324;48.146;11.502;2024-02-04T04:16:21;8.07;;;3.88;;
24173;SDS011;12324;48.146;11.502;2024-02-04T04:18:48;7.25;;;3.75;;
24173;SDS011;12324;48.146;11.502;2024-02-04T04:21:16;8.55;;;4.18;;
24173;SDS011;12324;48.146;11.502;2024-02-04T04:23:43;9.38;;;4.57;;
24173;SDS011;12324;48.146;11.502;2024-02-04T04:26:09;9.13;;;3.88;;
24173;SDS011;12324;48.146;11.502;2024-02-04T04:28:36;9.15;;;3.88;;
24173;SDS011;12324;48.146;11.502;2024-02-04T04:31:03;6.93;;;3.65;;
24173;SDS011;12324;48.146;11.502;2024-02-04T04:33:30;8.27;;;4.07;;
24173;SDS011;12324;48.146;11.502;2024-02-04T04:35:58;9.25;;;4.30;;
24173;SDS011;12324;48.146;11.502;2024-02-04T04:38:24;7.80;;;3.75;;
24173;SDS011;12324;48.146;11.502;2024-02-04T04:40:51;9.35;;;4.15;;
24173;SDS011;12324;48.146;11.502;2024-02-04T04:43:18;6.13;;;3.38;;
24173;SDS011;12324;48.146;11.502;2024-02-04T04:45:45;7.40;;;3.70;;
24173;SDS011;12324;48.146;11.502;2024-02-04T04:48:12;6.88;;;3.55;;
24173;SDS011;12324;48.146;11.502;2024-02-04T04:50:39;6.97;;;3.35;;
24173;SDS011;12324;48.146;11.502;2024-02-04T04:53:06;6.75;;;3.40;;
24173;SDS011;12324;48.146;11.502;2024-02-04T04:55:32;8.13;;;3.65;;
24173;SDS011;12324;48.146;11.502;2024-02-04T04:57:59;7.72;;;3.08;;
24173;SDS011;12324;48.146;11.502;2024-02-04T05:00:26;4.97;;;2.50;;
24173;SDS011;12324;48.146;11.502;2024-02-04T05:02:53;6.03;;;2.95;;
24173;SDS011;12324;48.146;11.502;2024-02-04T05:05:20;6.88;;;2.88;;
24173;SDS011;12324;48.146;11.502;2024-02-04T05:07:47;4.97;;;2.72;;
24173;SDS011;12324;48.146;11.502;2024-02-04T05:10:14;6.68;;;2.95;;
24173;SDS011;12324;48.146;11.502;2024-02-04T05:12:41;10.98;;;3.22;;
24173;SDS011;12324;48.146;11.502;2024-02-04T05:15:08;7.57;;;3.20;;
24173;SDS011;12324;48.146;11.502;2024-02-04T05:17:35;9.05;;;2.95;;
24173;SDS011;12324;48.146;11.502;2024-02-04T05:20:02;17.05;;;3.70;;
24173;SDS011;12324;48.146;11.502;2024-02-04T05:22:29;6.55;;;2.70;;
24173;SDS011;12324;48.146;11.502;2024-02-04T05:24:56;7.28;;;3.20;;
24173;SDS011;12324;48.146;11.502;2024-02-04T05:27:24;11.13;;;3.13;;
24173;SDS011;12324;48.146;11.502;2024-02-04T05:29:52;6.45;;;2.88;;
24173;SDS011;12324;48.146;11.502;2024-02-04T05:32:19;7.13;;;2.70;;
24173;SDS011;12324;48.146;11.502;2024-02-04T05:34:46;6.57;;;3.45;;
24173;SDS011;12324;48.146;11.502;2024-02-04T05:37:13;9.77;;;3.80;;
24173;SDS011;12324;48.146;11.502;2024-02-04T05:39:41;6.75;;;3.05;;
24173;SDS011;12324;48.146;11.502;2024-02-04T05:42:08;8.30;;;3.33;;
24173;SDS011;12324;48.146;11.502;2024-02-04T05:44:35;6.82;;;3.03;;
24173;SDS011;12324;48.146;11.502;2024-02-04T05:47:02;9.73;;;3.55;;
24173;SDS011;12324;48.146;11.502;2024-02-04T05:49:29;7.32;;;3.83;;
24173;SDS011;12324;48.146;11.502;2024-02-04T05:51:57;11.27;;;4.15;;
24173;SDS011;12324;48.146;11.502;2024-02-04T05:54:24;7.40;;;3.40;;
24173;SDS011;12324;48.146;11.502;2024-02-04T05:56:51;10.32;;;3.60;;
24173;SDS011;12324;48.146;11.502;2024-02-04T05:59:18;8.55;;;3.83;;
24173;SDS011;12324;48.146;11.502;2024-02-04T06:01:46;11.05;;;3.88;;
24173;SDS011;12324;48.146;11.502;2024-02-04T06:04:13;9.30;;;4.15;;
24173;SDS011;12324;48.146;11.502;2024-02-04T06:06:40;9.50;;;3.95;;
24173;SDS011;12324;48.146;11.502;2024-02-04T06:09:07;8.55;;;4.15;;
24173;SDS011;12324;48.146;11.502;2024-02-04T06:11:35;9.57;;;4.20;;
24173;SDS011;12324;48.146;11.502;2024-02-04T06:14:02;10.75;;;4.82;;
24173;SDS011;12324;48.146;11.502;2024-02-04T06:16:29;8.43;;;3.78;;
24173;SDS011;12324;48.146;11.502;2024-02-04T06:18:56;6.80;;;3.90;;
24173;SDS011;12324;48.146;11.502;2024-02-04T06:21:24;8.77;;;3.53;;
24173;SDS011;12324;48.146;11.502;2024-02-04T06:23:52;11.05;;;3.85;;
24173;SDS011;12324;48.146;11.502;2024-02-04T06:26:19;8.70;;;3.63;;
24173;SDS011;12324;48.146;11.502;2024-02-04T06:28:46;8.80;;;3.88;;
24173;SDS011;12324;48.146;11.502;2024-02-04T06:31:15;9.02;;;3.88;;
24173;SDS011;12324;48.146;11.502;2024-02-04T06:33:42;8.63;;;3.78;;
24173;SDS011;12324;48.146;11.502;2024-02-04T06:36:10;9.82;;;3.70;;
24173;SDS011;12324;48.146;11.502;2024-02-04T06:38:37;11.50;;;3.40;;
24173;SDS011;12324;48.146;11.502;2024-02-04T06:41:04;10.60;;;3.80;;
24173;SDS011;12324;48.146;11.502;2024-02-04T06:43:32;11.43;;;3.92;;
24173;SDS011;12324;48.146;11.502;2024-02-04T06:46:02;8.63;;;3.75;;
24173;SDS011;12324;48.146;11.502;2024-02-04T06:48:30;9.35;;;4.10;;
24173;SDS011;12324;48.146;11.502;2024-02-04T06:50:57;10.40;;;4.75;;
24173;SDS011;12324;48.146;11.502;2024-02-04T06:53:25;9.82;;;4.70;;
24173;SDS011;12324;48.146;11.502;2024-02-04T06:55:52;9.40;;;4.45;;
24173;SDS011;12324;48.146;11.502;2024-02-04T06:58:20;13.15;;;4.90;;
24173;SDS011;12324;48.146;11.502;2024-02-04T07:00:47;12.57;;;5.05;;
24173;SDS011;12324;48.146;11.502;2024-02-04T07:03:14;13.05;;;4.68;;
24173;SDS011;12324;48.146;11.502;2024-02-04T07:05:42;14.20;;;5.50;;
24173;SDS011;12324;48.146;11.502;2024-02-04T07:08:13;13.48;;;5.05;;
24173;SDS011;12324;48.146;11.502;2024-02-04T07:10:40;11.80;;;5.03;;
24173;SDS011;12324;48.146;11.502;2024-02-04T07:13:07;14.18;;;6.28;;
24173;SDS011;12324;48.146;11.502;2024-02-04T07:15:37;15.93;;;5.93;;
24173;SDS011;12324;48.146;11.502;2024-02-04T07:18:05;11.23;;;5.68;;
24173;SDS011;12324;48.146;11.502;2024-02-04T07:20:32;12.57;;;6.15;;
24173;SDS011;12324;48.146;11.502;2024-02-04T07:22:58;15.43;;;6.60;;
24173;SDS011;12324;48.146;11.502;2024-02-04T07:25:25;12.50;;;5.85;;
24173;SDS011;12324;48.146;11.502;2024-02-04T07:27:53;17.83;;;6.55;;
24173;SDS011;12324;48.146;11.502;2024-02-04T07:30:20;16.30;;;7.43;;
24173;SDS011;12324;48.146;11.502;2024-02-04T07:32:50;14.50;;;6.65;;
24173;SDS011;12324;48.146;11.502;2024-02-04T07:35:17;14.10;;;6.53;;
24173;SDS011;12324;48.146;11.502;2024-02-04T07:37:43;15.98;;;7.15;;
24173;SDS011;12324;48.146;11.502;2024-02-04T07:40:10;13.57;;;6.68;;
24173;SDS011;12324;48.146;11.502;2024-02-04T07:42:37;13.13;;;5.63;;
24173;SDS011;12324;48.146;11.502;2024-02-04T07:45:04;13.48;;;6.50;;
24173;SDS011;12324;48.146;11.502;2024-02-04T07:47:35;13.95;;;6.32;;
24173;SDS011;12324;48.146;11.502;2024-02-04T07:50:02;15.70;;;7.03;;
24173;SDS011;12324;48.146;11.502;2024-02-04T07:52:30;14.07;;;7.05;;
24173;SDS011;12324;48.146;11.502;2024-02-04T07:54:57;19.50;;;6.22;;
24173;SDS011;12324;48.146;11.502;2024-02-04T07:57:24;13.48;;;6.13;;
24173;SDS011;12324;48.146;11.502;2024-02-04T07:59:51;13.25;;;5.55;;
24173;SDS011;12324;48.146;11.502;2024-02-04T08:02:18;12.52;;;5.32;;
24173;SDS011;12324;48.146;11.502;2024-02-04T08:04:46;15.15;;;5.45;;
24173;SDS011;12324;48.146;11.502;2024-02-04T08:07:13;17.92;;;6.80;;
24173;SDS011;12324;48.146;11.502;2024-02-04T08:09:40;11.38;;;4.82;;
24173;SDS011;12324;48.146;11.502;2024-02-04T08:12:06;11.00;;;4.65;;
24173;SDS011;12324;48.146;11.502;2024-02-04T08:14:34;17.40;;;5.40;;
24173;SDS011;12324;48.146;11.502;2024-02-04T08:17:01;10.13;;;4.70;;
24173;SDS011;12324;48.146;11.502;2024-02-04T08:19:27;10.05;;;5.07;;
24173;SDS011;12324;48.146;11.502;2024-02-04T08:21:54;9.45;;;4.40;;
24173;SDS011;12324;48.146;11.502;2024-02-04T08:24:21;10.93;;;4.13;;
24173;SDS011;12324;48.146;11.502;2024-02-04T08:26:48;9.75;;;4.13;;
24173;SDS011;12324;48.146;11.502;2024-02-04T08:29:15;8.82;;;3.72;;
24173;SDS011;12324;48.146;11.502;2024-02-04T08:31:42;12.05;;;4.18;;
24173;SDS011;12324;48.146;11.502;2024-02-04T08:34:09;9.55;;;4.30;;
24173;SDS011;12324;48.146;11.502;2024-02-04T08:36:35;9.85;;;4.20;;
24173;SDS011;12324;48.146;11.502;2024-02-04T08:39:02;10.32;;;4.18;;
24173;SDS011;12324;48.146;11.502;2024-02-04T08:41:29;11.75;;;3.78;;
24173;SDS011;12324;48.146;11.502;2024-02-04T08:43:56;11.63;;;4.05;;
24173;SDS011;12324;48.146;11.502;2024-02-04T08:46:26;10.57;;;3.45;;
24173;SDS011;12324;48.146;11.502;2024-02-04T08:48:53;9.77;;;4.32;;
24173;SDS011;12324;48.146;11.502;2024-02-04T08:51:19;7.93;;;3.60;;
24173;SDS011;12324;48.146;11.502;2024-02-04T08:53:46;10.43;;;4.18;;
24173;SDS011;12324;48.146;11.502;2024-02-04T08:56:13;12.23;;;4.75;;
24173;SDS011;12324;48.146;11.502;2024-02-04T08:58:40;6.95;;;3.40;;
24173;SDS011;12324;48.146;11.502;2024-02-04T09:01:07;11.63;;;4.68;;
24173;SDS011;12324;48.146;11.502;2024-02-04T09:03:34;9.93;;;3.97;;
24173;SDS011;12324;48.146;11.502;2024-02-04T09:06:01;9.38;;;4.22;;
24173;SDS011;12324;48.146;11.502;2024-02-04T09:08:27;12.35;;;4.82;;
24173;SDS011;12324;48.146;11.502;2024-02-04T09:10:54;11.05;;;5.15;;
24173;SDS011;12324;48.146;11.502;2024-02-04T09:13:21;14.38;;;4.05;;
24173;SDS011;12324;48.146;11.502;2024-02-04T09:15:49;14.75;;;4.88;;
24173;SDS011;12324;48.146;11.502;2024-02-04T09:18:16;10.82;;;4.18;;
24173;SDS011;12324;48.146;11.502;2024-02-04T09:20:43;12.05;;;3.85;;
24173;SDS011;12324;48.146;11.502;2024-02-04T09:23:10;14.88;;;4.85;;
24173;SDS011;12324;48.146;11.502;2024-02-04T09:25:37;14.40;;;4.68;;
24173;SDS011;12324;48.146;11.502;2024-02-04T09:28:04;16.85;;;5.28;;
24173;SDS011;12324;48.146;11.502;2024-02-04T09:30:31;14.18;;;5.40;;
24173;SDS011;12324;48.146;11.502;2024-02-04T09:32:58;12.85;;;5.22;;
24173;SDS011;12324;48.146;11.502;2024-02-04T09:35:25;15.20;;;4.57;;
24173;SDS011;12324;48.146;11.502;2024-02-04T09:37:52;13.95;;;4.93;;
24173;SDS011;12324;48.146;11.502;2024-02-04T09:40:19;10.13;;;4.30;;
24173;SDS011;12324;48.146;11.502;2024-02-04T09:42:46;10.90;;;5.25;;
24173;SDS011;12324;48.146;11.502;2024-02-04T09:45:14;12.45;;;5.05;;
24173;SDS011;12324;48.146;11.502;2024-02-04T09:47:42;9.93;;;4.55;;
24173;SDS011;12324;48.146;11.502;2024-02-04T09:50:10;12.93;;;4.68;;
24173;SDS011;12324;48.146;11.502;2024-02-04T09:52:39;11.55;;;4.45;;
24173;SDS011;12324;48.146;11.502;2024-02-04T09:55:07;17.10;;;5.40;;
24173;SDS011;12324;48.146;11.502;2024-02-04T09:57:37;11.98;;;4.80;;
24173;SDS011;12324;48.146;11.502;2024-02-04T10:00:04;13.18;;;4.15;;
24173;SDS011;12324;48.146;11.502;2024-02-04T10:02:34;14.23;;;5.57;;
24173;SDS011;12324;48.146;11.502;2024-02-04T10:05:02;11.80;;;5.35;;
24173;SDS011;12324;48.146;11.502;2024-02-04T10:07:30;16.92;;;5.22;;
24173;SDS011;12324;48.146;11.502;2024-02-04T10:09:57;14.13;;;6.07;;
24173;SDS011;12324;48.146;11.502;2024-02-04T10:12:23;14.27;;;5.13;;
24173;SDS011;12324;48.146;11.502;2024-02-04T10:14:51;12.30;;;5.28;;
24173;SDS011;12324;48.146;11.502;2024-02-04T10:17:17;13.55;;;5.45;;
24173;SDS011;12324;48.146;11.502;2024-02-04T10:19:47;12.38;;;4.60;;
24173;SDS011;12324;48.146;11.502;2024-02-04T10:22:15;12.77;;;4.93;;
24173;SDS011;12324;48.146;11.502;2024-02-04T10:24:43;15.45;;;5.80;;
24173;SDS011;12324;48.146;11.502;2024-02-04T10:27:10;8.68;;;4.05;;
24173;SDS011;12324;48.146;11.502;2024-02-04T10:29:47;14.52;;;5.38;;
24173;SDS011;12324;48.146;11.502;2024-02-04T10:32:14;13.50;;;5.28;;
24173;SDS011;12324;48.146;11.502;2024-02-04T10:34:48;11.07;;;5.13;;
24173;SDS011;12324;48.146;11.502;2024-02-04T10:37:16;13.40;;;5.13;;
24173;SDS011;12324;48.146;11.502;2024-02-04T10:39:43;11.50;;;4.90;;
24173;SDS011;12324;48.146;11.502;2024-02-04T10:42:10;12.20;;;5.03;;
24173;SDS011;12324;48.146;11.502;2024-02-04T10:44:39;11.65;;;5.43;;
24173;SDS011;12324;48.146;11.502;2024-02-04T10:47:11;15.07;;;4.93;;
24173;SDS011;12324;48.146;11.502;2024-02-04T10:49:45;11.13;;;4.82;;
24173;SDS011;12324;48.146;11.502;2024-02-04T10:52:17;12.48;;;4.95;;
24173;SDS011;12324;48.146;11.502;2024-02-04T10:54:44;11.90;;;5.05;;
24173;SDS011;12324;48.146;11.502;2024-02-04T10:57:12;11.57;;;4.75;;
24173;SDS011;12324;48.146;11.502;2024-02-04T10:59:47;12.82;;;4.78;;
24173;SDS011;12324;48.146;11.502;2024-02-04T11:02:17;10.13;;;3.95;;
24173;SDS011;12324;48.146;11.502;2024-02-04T11:04:48;10.05;;;4.47;;
24173;SDS011;12324;48.146;11.502;2024-02-04T11:07:17;9.95;;;3.80;;
24173;SDS011;12324;48.146;11.502;2024-02-04T11:09:45;7.97;;;3.22;;
24173;SDS011;12324;48.146;11.502;2024-02-04T11:12:16;5.20;;;2.60;;
24173;SDS011;12324;48.146;11.502;2024-02-04T11:14:46;6.40;;;2.50;;
24173;SDS011;12324;48.146;11.502;2024-02-04T11:17:24;5.07;;;2.45;;
24173;SDS011;12324;48.146;11.502;2024-02-04T11:27:59;7.60;;;2.70;;
24173;SDS011;12324;48.146;11.502;2024-02-04T11:30:26;8.13;;;2.85;;
24173;SDS011;12324;48.146;11.502;2024-02-04T11:32:54;4.70;;;2.20;;
24173;SDS011;12324;48.146;11.502;2024-02-04T11:35:21;6.47;;;2.40;;
24173;SDS011;12324;48.146;11.502;2024-02-04T11:37:49;6.80;;;2.42;;
24173;SDS011;12324;48.146;11.502;2024-02-04T11:40:17;4.57;;;2.35;;
24173;SDS011;12324;48.146;11.502;2024-02-04T11:42:45;4.65;;;2.08;;
24173;SDS011;12324;48.146;11.502;2024-02-04T11:45:13;9.43;;;2.38;;
24173;SDS011;12324;48.146;11.502;2024-02-04T11:47:40;5.05;;;1.90;;
24173;SDS011;12324;48.146;11.502;2024-02-04T11:50:08;7.18;;;2.78;;
24173;SDS011;12324;48.146;11.502;2024-02-04T11:52:37;7.65;;;2.38;;
24173;SDS011;12324;48.146;11.502;2024-02-04T11:55:05;4.15;;;2.10;;
24173;SDS011;12324;48.146;11.502;2024-02-04T11:57:33;4.88;;;2.30;;
24173;SDS011;12324;48.146;11.502;2024-02-04T12:00:01;3.50;;;1.95;;
24173;SDS011;12324;48.146;11.502;2024-02-04T12:02:32;6.47;;;2.30;;
24173;SDS011;12324;48.146;11.502;2024-02-04T12:04:59;4.70;;;2.25;;
24173;SDS011;12324;48.146;11.502;2024-02-04T12:07:27;6.20;;;2.22;;
24173;SDS011;12324;48.146;11.502;2024-02-04T12:09:56;8.68;;;1.88;;
24173;SDS011;12324;48.146;11.502;2024-02-04T12:12:23;9.52;;;2.47;;
24173;SDS011;12324;48.146;11.502;2024-02-04T12:14:52;9.65;;;2.20;;
24173;SDS011;12324;48.146;11.502;2024-02-04T12:17:19;6.03;;;2.25;;
24173;SDS011;12324;48.146;11.502;2024-02-04T12:19:46;2.10;;;1.58;;
24173;SDS011;12324;48.146;11.502;2024-02-04T12:22:13;5.72;;;2.10;;
24173;SDS011;12324;48.146;11.502;2024-02-04T12:24:41;5.80;;;2.10;;
24173;SDS011;12324;48.146;11.502;2024-02-04T12:27:08;8.50;;;2.30;;
24173;SDS011;12324;48.146;11.502;2024-02-04T12:29:35;4.10;;;1.75;;
24173;SDS011;12324;48.146;11.502;2024-02-04T12:32:03;8.85;;;2.58;;
24173;SDS011;12324;48.146;11.502;2024-02-04T12:34:30;3.78;;;1.90;;
24173;SDS011;12324;48.146;11.502;2024-02-04T12:37:00;3.17;;;1.70;;
24173;SDS011;12324;48.146;11.502;2024-02-04T12:39:28;4.50;;;2.08;;
24173;SDS011;12324;48.146;11.502;2024-02-04T12:41:55;1.98;;;1.65;;
24173;SDS011;12324;48.146;11.502;2024-02-04T12:44:22;6.63;;;2.45;;
24173;SDS011;12324;48.146;11.502;2024-02-04T12:46:52;4.43;;;2.20;;
24173;SDS011;12324;48.146;11.502;2024-02-04T12:49:19;7.05;;;2.10;;
24173;SDS011;12324;48.146;11.502;2024-02-04T12:51:48;5.00;;;1.63;;
24173;SDS011;12324;48.146;11.502;2024-02-04T12:54:15;5.43;;;2.08;;
24173;SDS011;12324;48.146;11.502;2024-02-04T12:59:10;9.50;;;2.25;;
24173;SDS011;12324;48.146;11.502;2024-02-04T13:01:37;8.20;;;2.35;;
24173;SDS011;12324;48.146;11.502;2024-02-04T13:04:05;3.58;;;1.70;;
24173;SDS011;12324;48.146;11.502;2024-02-04T13:06:37;7.75;;;2.78;;
24173;SDS011;12324;48.146;11.502;2024-02-04T13:09:04;4.78;;;1.98;;
24173;SDS011;12324;48.146;11.502;2024-02-04T13:11:32;5.40;;;2.10;;
24173;SDS011;12324;48.146;11.502;2024-02-04T13:13:59;4.35;;;1.90;;
24173;SDS011;12324;48.146;11.502;2024-02-04T13:16:26;5.00;;;2.13;;
24173;SDS011;12324;48.146;11.502;2024-02-04T13:18:53;3.70;;;1.88;;
24173;SDS011;12324;48.146;11.502;2024-02-04T13:21:20;3.42;;;1.75;;
24173;SDS011;12324;48.146;11.502;2024-02-04T13:23:49;7.40;;;2.40;;
24173;SDS011;12324;48.146;11.502;2024-02-04T13:26:16;4.60;;;2.15;;
24173;SDS011;12324;48.146;11.502;2024-02-04T13:28:43;7.32;;;2.47;;
24173;SDS011;12324;48.146;11.502;2024-02-04T13:31:10;5.93;;;2.22;;
24173;SDS011;12324;48.146;11.502;2024-02-04T13:33:38;7.55;;;2.20;;
24173;SDS011;12324;48.146;11.502;2024-02-04T13:36:06;4.68;;;2.13;;
24173;SDS011;12324;48.146;11.502;2024-02-04T13:38:37;11.48;;;2.65;;
24173;SDS011;12324;48.146;11.502;2024-02-04T13:41:04;3.50;;;1.98;;
24173;SDS011;12324;48.146;11.502;2024-02-04T13:43:32;5.30;;;2.30;;
24173;SDS011;12324;48.146;11.502;2024-02-04T13:45:59;7.50;;;2.50;;
24173;SDS011;12324;48.146;11.502;2024-02-04T13:48:27;9.18;;;2.50;;
24173;SDS011;12324;48.146;11.502;2024-02-04T13:50:54;7.47;;;2.90;;
24173;SDS011;12324;48.146;11.502;2024-02-04T13:53:21;6.85;;;2.13;;
24173;SDS011;12324;48.146;11.502;2024-02-04T13:55:48;5.32;;;2.20;;
24173;SDS011;12324;48.146;11.502;2024-02-04T13:58:15;9.10;;;2.42;;
24173;SDS011;12324;48.146;11.502;2024-02-04T14:00:44;7.22;;;2.42;;
24173;SDS011;12324;48.146;11.502;2024-02-04T14:03:11;6.30;;;2.28;;
24173;SDS011;12324;48.146;11.502;2024-02-04T14:05:41;7.85;;;2.72;;
24173;SDS011;12324;48.146;11.502;2024-02-04T14:08:08;10.95;;;3.00;;
24173;SDS011;12324;48.146;11.502;2024-02-04T14:10:35;5.82;;;2.28;;
24173;SDS011;12324;48.146;11.502;2024-02-04T14:13:02;8.70;;;2.45;;
24173;SDS011;12324;48.146;11.502;2024-02-04T14:15:33;8.02;;;2.17;;
24173;SDS011;12324;48.146;11.502;2024-02-04T14:18:00;8.07;;;2.58;;
24173;SDS011;12324;48.146;11.502;2024-02-04T14:20:27;6.20;;;2.22;;
24173;SDS011;12324;48.146;11.502;2024-02-04T14:22:54;6.15;;;2.03;;
24173;SDS011;12324;48.146;11.502;2024-02-04T14:25:21;7.55;;;2.42;;
24173;SDS011;12324;48.146;11.502;2024-02-04T14:27:48;6.18;;;2.10;;
24173;SDS011;12324;48.146;11.502;2024-02-04T14:30:14;8.77;;;2.55;;
24173;SDS011;12324;48.146;11.502;2024-02-04T14:32:41;4.95;;;2.20;;
24173;SDS011;12324;48.146;11.502;2024-02-04T14:35:08;6.82;;;2.13;;
24173;SDS011;12324;48.146;11.502;2024-02-04T14:37:36;6.93;;;2.40;;
24173;SDS011;12324;48.146;11.502;2024-02-04T14:40:05;7.68;;;2.22;;
24173;SDS011;12324;48.146;11.502;2024-02-04T14:42:33;7.63;;;3.08;;